Ana Sayfa
METAR-TAF:

METAR-TAF

Havaalanları :

Mıkolayiv, Ukrayna

Enlem: 47-03-29N, Boylam: 031-55-15E, yükseklik: 56 m

Güncel hava durumu gözlemi

Rapor saat 14:00 UTC de 8 saat ve 48 dakika önce yapıldı.
Rüzgar kuzeydoğudan 10 kt, kuzey ve doğu arasında değişken
Sıcaklık 15°C
Nem 25%
Basınç 1024 hPa
Görüş mesafesi 10 km veya daha fazla
1500 m altında bulut yok ve kümülonimbus yok

METAR: UKON 201400Z 05005MPS 010V080 CAVOK 15/M05 Q1024 NOSIG

Saat: 01:48 (22:48 UTC)

Tahmin

Rapor saat 11:03 UTC de 11 saat ve 45 dakika önce yapıldı.
Ayın 20'si saat 12 UTC'den ayın 20'si saat 21 UTC'ye kadar geçerli Tahmin
Rüzgar kuzeydoğudan 16 kt ve 29 kt'a kadar ani rüzgarlar
Görüş mesafesi 10 km veya daha fazla
2500 ft yükseklikte parçalı bulutlu, Kümülonimbus.

TAF: UKON 201103Z 2012/2021 05008G15MPS 9999 SCT025CB

4.000'den fazla havaalanı için hava durumu gözlemleri ve tahminleri (METAR ve TAF raporları).

Kullanılabilir istasyonlar harita üzerinde sarı ve kırmızı noktalarla gösterilir.

İstasyonun adını görmek için fareyi noktanın üzerinde gezdirin.

Sonrasında hava gözlem ve tahminlerini görmek için tıklayın.

Haritayı değiştirmek için: yaklaştırmak için siyah artı işaretli yeşil düğmeye ve uzaklaştırmak için de eksi işaretli düğmeye hızla tıklayın; bitişik haritalar için yeşil okları kullanın.


METAR-TAF: